VTBS Airport Information

Runway Information
Runway 01L Length 12139 ft width 197 ft
Elevation 0 ft Threshold 0 ft Heading 14
Runway 19R Length 12139 ft Width 197 ft
Elevation 0 ft Threshold 0 ft Heading 194
Runway 01R Length 13123 ft width 197 ft
Elevation 0 ft Threshold 0 ft Heading 14
Runway 19L Length 13123 ft Width 197 ft
Elevation 0 ft Threshold 0 ft Heading 194
Airport Frequencies
Type ATIS Name Frequency 127.8 MHZ
Type GROUND (EA Name Frequency 121.65 MHZ
Type GROUND (MA Name Frequency 121.75 MHZ
Type GROUND (WE Name Frequency 121.95 MHZ
Type TOWER (01L Name Frequency 119 MHZ
Type TOWER (01R Name Frequency 118.2 MHZ
Airport Navaids
Type VOR-DME Name Suvarnabhumi Intl Frequency 111400 KHZ
Airport Weather Information & NOTAM
ADDS - METARS form results

(1617 UTC 24 January 2020)
Data provider http://aviationweather.gov/metar/data/
 
METAR text: VTBS 241600Z 20010KT 9000 FEW017 28/24 Q1012 NOSIG
Conditions at: VTBS (CHON BURI/SATTAH, TH) observed 1600 UTC 24 January 2020
Temperature: 28.0°C (82°F)
Dewpoint: 24.0°C (75°F) [RH = 79%]
Pressure (altimeter): 29.88 inches Hg (1012.0 mb)
Winds: from the SSW (200 degrees) at 12 MPH (10 knots; 5.1 m/s)
Visibility: 6 miles ( 9 km)
Ceiling: at least 12,000 feet AGL
Clouds: few clouds at 1700 feet AGL
Weather: no significant weather observed at this time

METAR text: VTBS 241530Z 20011KT 9000 FEW017 28/24 Q1012 NOSIG
Conditions at: VTBS (CHON BURI/SATTAH, TH) observed 1530 UTC 24 January 2020
Temperature: 28.0°C (82°F)
Dewpoint: 24.0°C (75°F) [RH = 79%]
Pressure (altimeter): 29.88 inches Hg (1012.0 mb)
Winds: from the SSW (200 degrees) at 13 MPH (11 knots; 5.7 m/s)
Visibility: 6 miles ( 9 km)
Ceiling: at least 12,000 feet AGL
Clouds: few clouds at 1700 feet AGL
Weather: no significant weather observed at this time

Forecast for: VTBS (CHON BURI/SATTAH, TH)
Text: TAF VTBS 241100Z 2412/2518 19010KT 9000 FEW025
Forecast period: 1200 UTC 24 January 2020 to 1800 UTC 25 January 2020
Forecast type: FROM: standard forecast or significant change
Winds: from the S (190 degrees) at 12 MPH (10 knots; 5.1 m/s)
Visibility: 6 miles (9 km)
Ceiling: at least 12,000 feet AGL
Clouds: few clouds at 2500 feet AGL
Weather: no significant weather forecast for this period